Time;durP1;ratioP1;P1;durP2;ratioP2;P2;SDS_P1;SDS_P2;PMS_P1;PMS_P2;Temp;Humidity;BMP_temperature;BMP_pressure;BME280_temperature;BME280_humidity;BME280_pressure;Samples;Min_cycle;Max_cycle;Signal;HPM_P1;HPM_P2
2021/12/12 00:02:20;;;;;;;19.70;11.43;;;;;;;;;;5006132;28;20037;-83
2021/12/12 00:04:47;;;;;;;17.30;10.75;;;;;;;;;;5011018;28;20033;-84
2021/12/12 00:07:18;;;;;;;18.83;10.35;;;;;;;;;;5030063;28;20046;-85
2021/12/12 00:09:44;;;;;;;19.42;11.63;;;;;;;;;;5022646;28;20489;-81
2021/12/12 00:12:22;;;;;;;19.23;11.02;;;;;;;;;;5026776;28;20112;-85
2021/12/12 00:14:47;;;;;;;19.08;11.43;;;;;;;;;;5029731;28;20018;-84
2021/12/12 00:17:13;;;;;;;20.02;11.57;;;;;;;;;;5022190;28;20057;-76
2021/12/12 00:19:39;;;;;;;18.95;11.43;;;;;;;;;;5024222;28;20064;-79
2021/12/12 00:22:12;;;;;;;20.02;11.45;;;;;;;;;;5031137;28;20033;-77
2021/12/12 00:24:38;;;;;;;18.55;11.10;;;;;;;;;;5026725;28;20063;-79
2021/12/12 00:27:03;;;;;;;20.02;12.25;;;;;;;;;;5025683;28;20021;-81
2021/12/12 00:29:30;;;;;;;19.20;11.65;;;;;;;;;;5030674;28;20124;-78
2021/12/12 00:31:58;;;;;;;19.48;11.77;;;;;;;;;;5026790;28;20029;-78
2021/12/12 00:34:25;;;;;;;17.42;10.77;;;;;;;;;;5033494;28;20017;-80
2021/12/12 00:36:50;;;;;;;18.25;11.05;;;;;;;;;;5033186;28;20064;-77
2021/12/12 00:39:17;;;;;;;21.10;11.73;;;;;;;;;;5030317;28;20033;-77
2021/12/12 00:41:48;;;;;;;18.55;11.57;;;;;;;;;;5017836;28;20049;-78
2021/12/12 00:44:14;;;;;;;18.70;12.05;;;;;;;;;;5023369;28;20049;-80
2021/12/12 00:46:39;;;;;;;20.45;12.10;;;;;;;;;;5027063;28;20026;-77
2021/12/12 00:49:04;;;;;;;18.15;11.35;;;;;;;;;;5026818;28;20032;-79
2021/12/12 00:51:31;;;;;;;18.38;11.40;;;;;;;;;;5028731;28;20079;-69
2021/12/12 00:53:57;;;;;;;20.95;12.05;;;;;;;;;;5031883;28;20072;-75
2021/12/12 00:56:22;;;;;;;19.33;11.93;;;;;;;;;;5029678;28;20480;-77
2021/12/12 00:58:48;;;;;;;20.48;11.63;;;;;;;;;;5030852;28;20349;-76
2021/12/12 01:01:23;;;;;;;21.00;12.52;;;;;;;;;;5023675;28;20032;-75
2021/12/12 01:03:51;;;;;;;20.50;12.13;;;;;;;;;;5036053;28;20078;-76
2021/12/12 01:06:17;;;;;;;20.40;11.63;;;;;;;;;;5036713;28;20041;-76
2021/12/12 01:08:44;;;;;;;22.58;13.00;;;;;;;;;;5030887;28;20044;-75
2021/12/12 01:11:14;;;;;;;20.52;12.45;;;;;;;;;;5034206;28;20116;-75
2021/12/12 01:13:40;;;;;;;20.05;12.50;;;;;;;;;;5030987;28;20040;-75
2021/12/12 01:16:09;;;;;;;20.75;12.82;;;;;;;;;;5027566;28;20466;-75
2021/12/12 01:18:37;;;;;;;19.77;11.53;;;;;;;;;;5026903;28;20033;-75
2021/12/12 01:21:11;;;;;;;21.85;13.23;;;;;;;;;;5034102;28;20267;-76
2021/12/12 01:23:39;;;;;;;20.83;12.35;;;;;;;;;;5027370;28;20034;-74
2021/12/12 01:26:06;;;;;;;22.17;13.68;;;;;;;;;;5025629;28;20029;-75
2021/12/12 01:28:32;;;;;;;21.52;13.15;;;;;;;;;;5027367;28;20025;-76
2021/12/12 01:31:00;;;;;;;21.85;13.38;;;;;;;;;;5031705;28;20040;-76
2021/12/12 01:33:35;;;;;;;22.58;13.75;;;;;;;;;;5031529;28;20029;-75
2021/12/12 01:36:04;;;;;;;21.92;13.77;;;;;;;;;;5033828;28;20110;-75
2021/12/12 01:41:13;;;;;;;19.23;11.73;;;;;;;;;;5029074;28;20040;-77
2021/12/12 01:43:40;;;;;;;20.70;12.63;;;;;;;;;;5030284;28;20416;-76
2021/12/12 01:46:11;;;;;;;23.92;13.63;;;;;;;;;;5023708;28;20028;-75
2021/12/12 01:48:45;;;;;;;21.92;12.63;;;;;;;;;;5025511;28;20029;-76
2021/12/12 01:51:11;;;;;;;22.52;13.43;;;;;;;;;;5028311;28;20017;-75
2021/12/12 01:53:40;;;;;;;24.30;13.85;;;;;;;;;;5022840;28;20516;-75
2021/12/12 01:56:12;;;;;;;20.77;12.70;;;;;;;;;;5023030;28;20026;-75
2021/12/12 01:58:38;;;;;;;22.40;13.68;;;;;;;;;;5026945;28;20432;-74
2021/12/12 02:01:11;;;;;;;22.42;13.65;;;;;;;;;;5020793;28;20018;-75
2021/12/12 02:03:39;;;;;;;22.88;13.27;;;;;;;;;;5030910;28;20017;-74
2021/12/12 02:06:06;;;;;;;23.73;14.05;;;;;;;;;;5030824;28;20021;-75
2021/12/12 02:08:36;;;;;;;22.80;13.45;;;;;;;;;;5022068;28;20049;-75
2021/12/12 02:11:07;;;;;;;22.63;13.43;;;;;;;;;;5027921;28;20512;-75
2021/12/12 02:13:36;;;;;;;22.95;13.50;;;;;;;;;;5022824;28;20029;-77
2021/12/12 02:16:01;;;;;;;20.10;12.63;;;;;;;;;;5026666;28;20068;-75
2021/12/12 02:18:32;;;;;;;22.33;13.77;;;;;;;;;;5023923;28;20060;-74
2021/12/12 02:21:20;;;;;;;22.30;13.68;;;;;;;;;;5032986;28;20033;-75
2021/12/12 02:37:58;;;;;;;26.38;13.95;;;;;;;;;;4957439;28;20058;-75
2021/12/12 02:40:25;;;;;;;22.92;13.95;;;;;;;;;;4951365;28;20525;-75
2021/12/12 02:42:50;;;;;;;22.42;13.75;;;;;;;;;;4949572;28;20230;-74
2021/12/12 02:45:17;;;;;;;23.98;14.63;;;;;;;;;;4949182;28;20043;-74
2021/12/12 02:47:45;;;;;;;25.95;13.88;;;;;;;;;;4953434;28;20083;-75
2021/12/12 02:50:18;;;;;;;27.85;14.80;;;;;;;;;;4958630;28;20203;-75
2021/12/12 02:52:48;;;;;;;22.45;13.20;;;;;;;;;;4945586;28;20522;-75
2021/12/12 02:55:16;;;;;;;22.85;13.60;;;;;;;;;;4961276;28;20070;-74
2021/12/12 02:57:42;;;;;;;22.70;13.63;;;;;;;;;;4956712;28;20411;-74
2021/12/12 03:00:08;;;;;;;24.92;13.85;;;;;;;;;;4955136;28;20035;-74
2021/12/12 03:02:41;;;;;;;23.80;14.13;;;;;;;;;;4949671;28;20046;-76
2021/12/12 03:05:07;;;;;;;23.25;13.05;;;;;;;;;;4968151;28;20030;-74
2021/12/12 03:07:33;;;;;;;23.38;13.70;;;;;;;;;;4966333;28;20458;-74
2021/12/12 03:09:59;;;;;;;22.55;13.63;;;;;;;;;;4968090;28;20022;-76
2021/12/12 03:12:31;;;;;;;23.90;14.00;;;;;;;;;;4961979;28;20027;-76
2021/12/12 03:14:57;;;;;;;21.30;13.23;;;;;;;;;;5008790;28;20061;-75
2021/12/12 03:17:23;;;;;;;24.13;13.70;;;;;;;;;;5018944;28;20512;-74
2021/12/12 03:19:54;;;;;;;22.67;12.32;;;;;;;;;;5022799;28;20049;-75
2021/12/12 03:22:19;;;;;;;19.98;12.90;;;;;;;;;;5027198;28;20408;-75
2021/12/12 03:24:45;;;;;;;21.55;12.93;;;;;;;;;;5029674;28;20013;-76
2021/12/12 03:27:10;;;;;;;20.48;12.20;;;;;;;;;;5023015;28;20381;-75
2021/12/12 03:29:36;;;;;;;22.42;13.23;;;;;;;;;;5026481;28;20044;-75
2021/12/12 03:32:04;;;;;;;19.85;12.10;;;;;;;;;;5019822;28;20028;-76
2021/12/12 03:34:33;;;;;;;22.00;12.70;;;;;;;;;;5023178;28;20112;-76
2021/12/12 03:36:59;;;;;;;18.73;12.02;;;;;;;;;;5025667;28;20030;-75
2021/12/12 03:39:29;;;;;;;21.50;12.30;;;;;;;;;;5025635;28;20029;-74
2021/12/12 03:41:56;;;;;;;21.10;12.05;;;;;;;;;;5026807;28;20401;-75
2021/12/12 03:44:23;;;;;;;22.10;12.15;;;;;;;;;;5020020;28;20032;-76
2021/12/12 03:46:49;;;;;;;20.45;12.23;;;;;;;;;;5028322;28;20512;-74
2021/12/12 03:49:15;;;;;;;18.58;11.30;;;;;;;;;;5028873;28;20017;-76
2021/12/12 03:51:40;;;;;;;19.15;11.27;;;;;;;;;;5028000;28;20045;-75
2021/12/12 03:54:06;;;;;;;18.38;11.65;;;;;;;;;;5022130;28;20029;-77
2021/12/12 03:56:31;;;;;;;19.17;11.95;;;;;;;;;;5028514;28;20022;-75
2021/12/12 03:58:57;;;;;;;19.42;12.55;;;;;;;;;;5028493;28;20014;-75
2021/12/12 04:01:28;;;;;;;21.35;12.43;;;;;;;;;;5015190;28;20381;-75
2021/12/12 04:03:55;;;;;;;18.80;11.80;;;;;;;;;;5021610;28;20021;-75
2021/12/12 04:06:23;;;;;;;18.63;11.40;;;;;;;;;;5023864;28;20033;-74
2021/12/12 04:08:49;;;;;;;20.42;12.30;;;;;;;;;;5021105;28;20160;-75
2021/12/12 04:11:17;;;;;;;21.00;11.63;;;;;;;;;;5022791;28;20074;-76
2021/12/12 04:13:43;;;;;;;19.05;11.38;;;;;;;;;;5023460;28;20029;-77
2021/12/12 04:16:09;;;;;;;19.52;11.63;;;;;;;;;;5026888;28;20033;-75
2021/12/12 04:18:34;;;;;;;18.63;11.48;;;;;;;;;;5025240;28;20014;-75
2021/12/12 04:20:59;;;;;;;17.85;11.30;;;;;;;;;;5030451;28;20021;-75
2021/12/12 04:23:27;;;;;;;22.73;12.68;;;;;;;;;;5028023;28;20064;-75
2021/12/12 04:25:52;;;;;;;20.98;12.15;;;;;;;;;;5026781;28;20025;-74
2021/12/12 04:28:17;;;;;;;20.23;11.50;;;;;;;;;;5027140;28;20052;-77
2021/12/12 04:30:44;;;;;;;19.73;11.63;;;;;;;;;;5024391;28;20024;-75
2021/12/12 04:33:09;;;;;;;18.50;11.73;;;;;;;;;;5028996;28;20112;-74
2021/12/12 04:35:35;;;;;;;21.45;11.95;;;;;;;;;;5032591;28;20278;-75
2021/12/12 04:38:02;;;;;;;20.73;13.13;;;;;;;;;;5021881;28;20135;-75
2021/12/12 04:40:30;;;;;;;18.80;12.35;;;;;;;;;;5027340;28;20432;-75
2021/12/12 04:42:56;;;;;;;22.52;11.77;;;;;;;;;;5022555;28;20034;-76
2021/12/12 04:45:21;;;;;;;20.83;12.70;;;;;;;;;;5026152;28;20477;-74
2021/12/12 04:50:42;;;;;;;21.25;11.75;;;;;;;;;;5029832;28;20102;-75
2021/12/12 04:53:11;;;;;;;20.10;11.45;;;;;;;;;;5022961;28;20472;-74
2021/12/12 04:56:05;;;;;;;17.70;10.82;;;;;;;;;;5022286;28;20091;-76
2021/12/12 04:58:31;;;;;;;18.17;11.18;;;;;;;;;;5000406;28;21138;-75
2021/12/12 05:01:04;;;;;;;17.92;11.05;;;;;;;;;;4998624;28;20053;-75
2021/12/12 05:03:47;;;;;;;18.90;11.30;;;;;;;;;;5000524;28;20029;-75
2021/12/12 05:06:15;;;;;;;19.75;11.65;;;;;;;;;;4998701;28;20466;-74
2021/12/12 05:08:50;;;;;;;18.70;10.88;;;;;;;;;;5000642;28;20038;-74
2021/12/12 05:11:24;;;;;;;18.23;11.07;;;;;;;;;;5004203;28;20029;-75
2021/12/12 05:13:52;;;;;;;20.67;11.23;;;;;;;;;;5004450;28;20022;-75
2021/12/12 05:16:23;;;;;;;19.45;10.95;;;;;;;;;;5009218;28;20034;-75
2021/12/12 05:18:51;;;;;;;21.13;11.90;;;;;;;;;;4999958;28;20033;-75
2021/12/12 05:21:18;;;;;;;20.10;11.32;;;;;;;;;;5011928;28;20042;-74
2021/12/12 05:23:45;;;;;;;19.45;10.80;;;;;;;;;;5002380;28;20026;-74
2021/12/12 05:26:13;;;;;;;19.65;11.48;;;;;;;;;;5008838;28;20061;-76
2021/12/12 05:28:41;;;;;;;18.85;11.38;;;;;;;;;;5002073;28;20137;-74
2021/12/12 05:31:08;;;;;;;19.90;11.00;;;;;;;;;;4991761;28;20130;-75
2021/12/12 05:33:34;;;;;;;17.98;11.27;;;;;;;;;;5001688;28;20102;-75
2021/12/12 05:35:59;;;;;;;17.33;10.98;;;;;;;;;;5025901;28;20033;-74
2021/12/12 05:38:25;;;;;;;17.45;10.35;;;;;;;;;;5030342;28;20418;-74
2021/12/12 05:40:51;;;;;;;19.05;10.48;;;;;;;;;;5024728;28;20025;-75
2021/12/12 05:43:18;;;;;;;16.58;10.02;;;;;;;;;;5030317;28;20436;-74
2021/12/12 05:45:44;;;;;;;17.15;10.45;;;;;;;;;;5030944;28;20021;-76
2021/12/12 05:48:09;;;;;;;16.13;9.35;;;;;;;;;;5020706;28;20048;-75
2021/12/12 05:50:35;;;;;;;16.48;9.35;;;;;;;;;;5033476;28;20033;-77
2021/12/12 05:53:01;;;;;;;15.10;9.20;;;;;;;;;;5019537;28;20053;-77
2021/12/12 05:55:28;;;;;;;14.20;8.73;;;;;;;;;;5026198;28;20025;-75
2021/12/12 05:57:55;;;;;;;14.55;8.65;;;;;;;;;;5026524;28;20029;-76
2021/12/12 06:00:23;;;;;;;14.75;9.02;;;;;;;;;;5029048;28;20108;-76
2021/12/12 06:02:49;;;;;;;14.68;8.82;;;;;;;;;;5026353;28;20104;-77
2021/12/12 06:05:14;;;;;;;14.70;8.85;;;;;;;;;;5027907;28;20652;-75
2021/12/12 06:07:40;;;;;;;13.43;8.40;;;;;;;;;;5022667;28;20559;-74
2021/12/12 06:10:07;;;;;;;15.15;9.25;;;;;;;;;;5027646;28;20125;-75
2021/12/12 06:12:34;;;;;;;13.75;8.40;;;;;;;;;;5028065;28;20830;-76
2021/12/12 06:15:00;;;;;;;12.95;8.45;;;;;;;;;;5027798;28;20112;-76
2021/12/12 06:17:26;;;;;;;12.52;8.43;;;;;;;;;;5023614;28;20030;-75
2021/12/12 06:19:52;;;;;;;13.32;8.30;;;;;;;;;;5021376;28;20025;-74
2021/12/12 06:22:17;;;;;;;13.18;8.45;;;;;;;;;;5016941;28;20175;-75
2021/12/12 06:24:43;;;;;;;12.05;7.68;;;;;;;;;;5026276;28;20014;-77
2021/12/12 06:27:15;;;;;;;14.60;8.60;;;;;;;;;;5027071;28;20083;-77
2021/12/12 06:29:41;;;;;;;12.38;8.10;;;;;;;;;;5021851;28;20137;-75
2021/12/12 06:32:07;;;;;;;13.45;8.43;;;;;;;;;;5018448;28;20113;-75
2021/12/12 06:34:32;;;;;;;13.27;8.20;;;;;;;;;;5018158;28;20470;-77
2021/12/12 06:36:57;;;;;;;12.43;7.55;;;;;;;;;;5024534;28;20041;-75
2021/12/12 06:39:23;;;;;;;12.85;7.80;;;;;;;;;;5014841;28;20032;-75
2021/12/12 06:41:49;;;;;;;14.75;8.07;;;;;;;;;;5013743;28;20144;-77
2021/12/12 06:44:15;;;;;;;11.82;7.60;;;;;;;;;;5022978;28;20022;-76
2021/12/12 06:46:41;;;;;;;12.13;7.80;;;;;;;;;;5016707;28;20056;-76
2021/12/12 06:49:08;;;;;;;10.20;5.72;;;;;;;;;;5018302;28;20017;-75
2021/12/12 06:51:35;;;;;;;10.63;5.90;;;;;;;;;;5019188;28;20033;-76
2021/12/12 06:54:00;;;;;;;11.15;7.00;;;;;;;;;;5018130;28;20056;-78
2021/12/12 06:56:26;;;;;;;10.70;6.45;;;;;;;;;;5019081;28;20041;-75
2021/12/12 06:58:52;;;;;;;10.32;6.50;;;;;;;;;;5019760;28;20059;-75
2021/12/12 07:01:22;;;;;;;10.73;6.88;;;;;;;;;;5022956;28;20469;-75
2021/12/12 07:03:48;;;;;;;10.75;6.65;;;;;;;;;;5019136;28;20044;-74
2021/12/12 07:06:17;;;;;;;12.77;7.05;;;;;;;;;;5018888;28;20045;-75
2021/12/12 07:08:42;;;;;;;10.73;6.63;;;;;;;;;;5014649;28;20037;-76
2021/12/12 07:11:07;;;;;;;9.27;6.38;;;;;;;;;;5017786;28;20123;-75
2021/12/12 07:13:33;;;;;;;10.75;7.07;;;;;;;;;;5017764;28;20057;-76
2021/12/12 07:15:59;;;;;;;10.90;7.03;;;;;;;;;;5013119;28;20029;-76
2021/12/12 07:18:27;;;;;;;11.07;6.50;;;;;;;;;;5029677;28;20025;-78
2021/12/12 07:20:53;;;;;;;10.77;6.18;;;;;;;;;;5029370;28;20473;-75
2021/12/12 07:23:19;;;;;;;10.25;6.63;;;;;;;;;;5029473;28;20037;-75
2021/12/12 07:25:45;;;;;;;10.73;6.45;;;;;;;;;;5022533;28;20036;-76
2021/12/12 07:28:11;;;;;;;10.45;6.53;;;;;;;;;;5029409;28;20044;-76
2021/12/12 07:30:36;;;;;;;10.15;6.53;;;;;;;;;;5029750;28;20028;-75
2021/12/12 07:33:04;;;;;;;10.32;5.63;;;;;;;;;;5029243;28;20502;-75
2021/12/12 07:35:31;;;;;;;9.85;6.00;;;;;;;;;;5025142;28;20017;-76
2021/12/12 07:37:56;;;;;;;9.15;6.00;;;;;;;;;;5042866;28;20098;-76
2021/12/12 07:40:22;;;;;;;11.10;6.55;;;;;;;;;;5029361;28;20521;-75
2021/12/12 07:42:48;;;;;;;9.90;6.25;;;;;;;;;;5029594;28;20025;-75
2021/12/12 07:45:13;;;;;;;9.18;6.20;;;;;;;;;;5021738;28;20034;-75
2021/12/12 07:47:39;;;;;;;10.52;7.07;;;;;;;;;;5025581;28;20153;-74
2021/12/12 07:50:06;;;;;;;10.45;6.22;;;;;;;;;;5029142;28;20564;-75
2021/12/12 07:52:32;;;;;;;10.48;6.88;;;;;;;;;;5035111;28;20025;-76
2021/12/12 07:54:58;;;;;;;9.30;5.78;;;;;;;;;;5026097;28;20415;-75
2021/12/12 07:57:24;;;;;;;10.45;6.55;;;;;;;;;;5027556;28;20079;-75
2021/12/12 07:59:50;;;;;;;8.93;6.00;;;;;;;;;;5020253;28;20124;-78
2021/12/12 08:02:16;;;;;;;10.32;6.55;;;;;;;;;;5026873;28;20032;-75
2021/12/12 08:04:42;;;;;;;10.63;6.60;;;;;;;;;;5028611;28;20040;-75
2021/12/12 08:07:09;;;;;;;9.73;6.43;;;;;;;;;;5019607;28;20120;-76
2021/12/12 08:09:35;;;;;;;9.60;6.03;;;;;;;;;;5023398;28;20500;-75
2021/12/12 08:12:01;;;;;;;11.23;6.72;;;;;;;;;;5028146;28;20052;-75
2021/12/12 08:14:27;;;;;;;9.95;6.50;;;;;;;;;;5026825;28;20104;-75
2021/12/12 08:16:53;;;;;;;10.48;6.72;;;;;;;;;;5028824;28;20121;-75
2021/12/12 08:19:20;;;;;;;10.80;6.55;;;;;;;;;;5028450;28;20045;-75
2021/12/12 08:21:46;;;;;;;9.88;6.03;;;;;;;;;;5031460;28;20431;-75
2021/12/12 08:24:12;;;;;;;11.45;6.78;;;;;;;;;;5028204;28;20025;-75
2021/12/12 08:26:38;;;;;;;9.60;6.22;;;;;;;;;;5030467;28;20033;-75
2021/12/12 08:29:05;;;;;;;10.55;6.88;;;;;;;;;;5028063;28;20022;-76
2021/12/12 08:31:30;;;;;;;10.95;6.57;;;;;;;;;;5014101;28;20617;-76
2021/12/12 08:33:55;;;;;;;11.18;6.60;;;;;;;;;;5028510;28;20060;-75
2021/12/12 08:36:21;;;;;;;12.80;6.60;;;;;;;;;;5022276;28;20030;-75
2021/12/12 08:38:46;;;;;;;11.15;6.85;;;;;;;;;;5019211;28;20528;-63
2021/12/12 08:41:12;;;;;;;10.10;6.45;;;;;;;;;;5016762;28;20029;-62
2021/12/12 08:43:37;;;;;;;10.63;7.07;;;;;;;;;;5027986;28;20041;-62
2021/12/12 08:46:08;;;;;;;13.90;6.53;;;;;;;;;;5028134;28;20036;-62
2021/12/12 08:48:36;;;;;;;9.70;6.28;;;;;;;;;;5029156;28;20140;-61
2021/12/12 08:51:04;;;;;;;12.05;6.60;;;;;;;;;;5032920;28;20017;-61
2021/12/12 08:53:29;;;;;;;9.98;6.57;;;;;;;;;;5032173;28;20056;-62
2021/12/12 08:55:56;;;;;;;11.35;6.20;;;;;;;;;;5032048;28;20033;-62
2021/12/12 08:58:23;;;;;;;9.73;6.15;;;;;;;;;;5032357;28;20426;-63
2021/12/12 09:00:50;;;;;;;10.63;6.70;;;;;;;;;;5030650;28;20134;-63
2021/12/12 09:03:20;;;;;;;10.35;6.43;;;;;;;;;;5028210;28;20026;-64
2021/12/12 09:05:45;;;;;;;11.00;6.68;;;;;;;;;;5031937;28;20049;-61
2021/12/12 09:08:12;;;;;;;10.45;6.85;;;;;;;;;;5031809;28;20049;-63
2021/12/12 09:10:40;;;;;;;10.25;6.63;;;;;;;;;;5023969;28;20103;-62
2021/12/12 09:13:11;;;;;;;10.70;6.80;;;;;;;;;;5031499;28;20033;-63
2021/12/12 09:15:42;;;;;;;10.80;6.63;;;;;;;;;;5028769;28;20427;-63
2021/12/12 09:18:11;;;;;;;10.18;6.82;;;;;;;;;;5031683;28;20104;-63
2021/12/12 09:20:49;;;;;;;10.35;7.35;;;;;;;;;;5025835;28;20029;-63
2021/12/12 09:23:23;;;;;;;10.80;7.03;;;;;;;;;;5027952;28;20025;-64
2021/12/12 09:25:53;;;;;;;11.30;6.82;;;;;;;;;;5024888;28;20053;-63
2021/12/12 09:28:39;;;;;;;9.50;6.55;;;;;;;;;;5031450;28;20026;-63
2021/12/12 09:31:06;;;;;;;12.07;7.60;;;;;;;;;;5027294;28;20033;-64
2021/12/12 09:33:31;;;;;;;11.23;7.03;;;;;;;;;;5029547;28;20025;-63
2021/12/12 09:36:14;;;;;;;11.02;6.92;;;;;;;;;;5026897;28;20089;-63
2021/12/12 09:38:39;;;;;;;11.43;6.95;;;;;;;;;;5023417;28;20029;-63
2021/12/12 09:41:10;;;;;;;12.24;7.40;;;;;;;;;;5026500;28;20056;-63
2021/12/12 09:43:44;;;;;;;11.95;7.22;;;;;;;;;;5026669;28;20064;-64
2021/12/12 09:46:20;;;;;;;12.20;7.10;;;;;;;;;;5023896;28;20029;-63
2021/12/12 09:52:03;;;;;;;11.25;7.00;;;;;;;;;;5026725;28;20025;-65
2021/12/12 09:54:47;;;;;;;12.88;7.57;;;;;;;;;;5028129;28;20108;-63
2021/12/12 09:57:12;;;;;;;13.27;7.40;;;;;;;;;;5032556;28;20598;-64
2021/12/12 09:59:48;;;;;;;12.15;7.88;;;;;;;;;;5025976;28;20030;-64
2021/12/12 10:02:33;;;;;;;11.85;7.70;;;;;;;;;;5028299;28;20026;-64
2021/12/12 10:05:22;;;;;;;11.60;7.20;;;;;;;;;;5019741;28;20397;-63
2021/12/12 10:07:59;;;;;;;11.07;6.78;;;;;;;;;;4983865;28;20051;-64
2021/12/12 10:10:29;;;;;;;10.85;6.78;;;;;;;;;;4979409;28;20035;-63
2021/12/12 10:12:57;;;;;;;10.70;6.93;;;;;;;;;;4984442;28;20039;-63
2021/12/12 10:15:23;;;;;;;10.52;6.60;;;;;;;;;;4984568;28;20129;-63
2021/12/12 10:17:56;;;;;;;10.75;6.88;;;;;;;;;;4978704;28;20030;-65
2021/12/12 10:20:28;;;;;;;9.70;6.32;;;;;;;;;;4989888;28;20018;-63
2021/12/12 10:23:12;;;;;;;10.25;6.30;;;;;;;;;;4977541;28;20042;-64
2021/12/12 10:25:58;;;;;;;8.38;5.85;;;;;;;;;;4985918;28;20194;-63
2021/12/12 10:28:59;;;;;;;9.73;6.03;;;;;;;;;;4987622;28;20415;-65
2021/12/12 10:31:30;;;;;;;9.18;5.80;;;;;;;;;;4930116;29;20503;-64
2021/12/12 10:33:58;;;;;;;9.75;6.20;;;;;;;;;;4930217;29;20070;-64
2021/12/12 10:36:35;;;;;;;8.65;5.65;;;;;;;;;;4928032;29;20031;-64
2021/12/12 10:39:09;;;;;;;9.02;6.05;;;;;;;;;;4930255;29;20122;-64
2021/12/12 10:41:46;;;;;;;9.32;5.93;;;;;;;;;;4930111;29;20024;-63
2021/12/12 10:44:11;;;;;;;10.90;6.38;;;;;;;;;;4939732;28;20430;-63
2021/12/12 10:46:36;;;;;;;9.14;5.80;;;;;;;;;;4980487;28;20057;-63
2021/12/12 10:49:03;;;;;;;10.92;6.28;;;;;;;;;;4986829;28;20048;-62
2021/12/12 10:51:34;;;;;;;9.57;6.18;;;;;;;;;;4987365;28;20026;-63
2021/12/12 10:54:01;;;;;;;9.23;5.57;;;;;;;;;;4987607;28;20038;-63
2021/12/12 10:56:33;;;;;;;8.00;5.57;;;;;;;;;;4987181;28;20119;-63
2021/12/12 10:58:59;;;;;;;7.55;5.22;;;;;;;;;;4983325;28;20031;-63
2021/12/12 11:01:44;;;;;;;8.93;5.75;;;;;;;;;;4974837;28;20015;-62
2021/12/12 11:04:18;;;;;;;7.93;5.20;;;;;;;;;;4987482;28;20034;-63
2021/12/12 11:06:56;;;;;;;7.85;5.50;;;;;;;;;;5028876;28;20032;-64
2021/12/12 11:09:41;;;;;;;7.32;5.07;;;;;;;;;;5029303;28;20033;-63
2021/12/12 11:12:19;;;;;;;7.95;5.03;;;;;;;;;;5025588;28;20029;-63
2021/12/12 11:14:47;;;;;;;7.40;4.90;;;;;;;;;;5023770;28;20753;-63
2021/12/12 11:17:17;;;;;;;7.57;5.25;;;;;;;;;;5022431;28;20466;-63
2021/12/12 11:19:42;;;;;;;;;;;;;;;;;;5026180;28;20021;-62
2021/12/12 11:22:16;;;;;;;7.07;5.00;;;;;;;;;;5031274;28;19909;-63
2021/12/12 11:24:44;;;;;;;7.55;5.10;;;;;;;;;;5021256;28;20442;-64
2021/12/12 11:27:12;;;;;;;6.80;4.50;;;;;;;;;;5019934;28;20037;-62
2021/12/12 11:29:42;;;;;;;6.40;4.40;;;;;;;;;;5011775;28;20049;-63
2021/12/12 11:32:07;;;;;;;6.90;4.70;;;;;;;;;;5020244;28;20030;-62
2021/12/12 11:34:33;;;;;;;7.78;4.50;;;;;;;;;;5028446;28;20032;-64
2021/12/12 11:37:17;;;;;;;6.53;4.72;;;;;;;;;;5027364;28;20096;-64
2021/12/12 11:40:02;;;;;;;6.68;4.30;;;;;;;;;;5028284;28;20032;-63
2021/12/12 11:42:46;;;;;;;7.38;4.07;;;;;;;;;;5026692;28;20029;-62
2021/12/12 11:45:14;;;;;;;6.60;4.25;;;;;;;;;;5022986;28;20547;-63
2021/12/12 11:48:01;;;;;;;5.85;4.00;;;;;;;;;;5027003;28;20036;-62
2021/12/12 11:50:31;;;;;;;5.32;3.70;;;;;;;;;;5030596;28;20029;-63
2021/12/12 11:53:04;;;;;;;5.30;3.50;;;;;;;;;;5025238;28;20026;-62
2021/12/12 11:55:50;;;;;;;5.50;4.00;;;;;;;;;;5026883;28;20030;-63
2021/12/12 11:58:20;;;;;;;5.55;3.53;;;;;;;;;;5025782;28;20081;-62
2021/12/12 12:00:59;;;;;;;5.15;3.30;;;;;;;;;;5020587;28;20033;-62
2021/12/12 12:03:27;;;;;;;4.85;3.30;;;;;;;;;;5028408;28;20139;-62
2021/12/12 12:06:02;;;;;;;4.88;3.40;;;;;;;;;;5028553;28;20021;-62
2021/12/12 12:08:45;;;;;;;4.28;3.05;;;;;;;;;;5026808;28;20057;-62
2021/12/12 12:11:28;;;;;;;4.90;3.30;;;;;;;;;;5025784;28;20492;-62
2021/12/12 12:14:02;;;;;;;4.47;3.10;;;;;;;;;;5023628;28;20033;-63
2021/12/12 12:16:42;;;;;;;4.65;2.92;;;;;;;;;;5018386;28;20508;-63
2021/12/12 12:19:08;;;;;;;4.75;3.20;;;;;;;;;;5024876;28;20021;-64
2021/12/12 12:21:56;;;;;;;4.98;3.36;;;;;;;;;;5030570;28;20091;-63
2021/12/12 12:24:22;;;;;;;6.18;3.88;;;;;;;;;;5025020;28;20048;-62
2021/12/12 12:26:56;;;;;;;6.72;4.03;;;;;;;;;;5027939;28;20541;-63
2021/12/12 12:29:21;;;;;;;5.32;3.38;;;;;;;;;;5026595;28;20117;-63
2021/12/12 12:31:52;;;;;;;5.10;3.50;;;;;;;;;;5036615;28;20839;-62
2021/12/12 12:34:36;;;;;;;5.43;3.28;;;;;;;;;;5034160;28;20563;-62
2021/12/12 12:37:20;;;;;;;5.63;3.75;;;;;;;;;;5037241;28;20016;-63
2021/12/12 12:40:03;;;;;;;6.82;3.92;;;;;;;;;;5037494;28;20044;-62
2021/12/12 12:42:47;;;;;;;6.22;3.53;;;;;;;;;;5044124;28;20025;-63
2021/12/12 12:45:31;;;;;;;6.10;3.55;;;;;;;;;;5021555;28;20059;-61
2021/12/12 12:48:01;;;;;;;5.53;3.88;;;;;;;;;;5027608;28;20050;-65
2021/12/12 12:50:39;;;;;;;6.93;4.10;;;;;;;;;;5030902;28;20025;-62
2021/12/12 12:53:08;;;;;;;5.63;3.90;;;;;;;;;;5030115;28;20203;-62
2021/12/12 12:55:33;;;;;;;5.25;3.80;;;;;;;;;;5028405;28;20032;-63
2021/12/12 12:58:10;;;;;;;5.53;3.38;;;;;;;;;;5027373;28;20563;-63
2021/12/12 13:00:35;;;;;;;4.20;3.17;;;;;;;;;;5019654;28;20124;-62
2021/12/12 13:03:19;;;;;;;5.50;2.90;;;;;;;;;;5024826;28;20433;-63
2021/12/12 13:06:00;;;;;;;3.53;2.40;;;;;;;;;;5026345;28;20025;-64
2021/12/12 13:08:43;;;;;;;5.25;3.05;;;;;;;;;;5028406;28;20057;-64
2021/12/12 13:11:10;;;;;;;8.90;4.32;;;;;;;;;;5030020;28;20025;-64
2021/12/12 13:13:41;;;;;;;4.90;3.20;;;;;;;;;;5040666;28;20408;-64
2021/12/12 13:16:14;;;;;;;4.72;2.80;;;;;;;;;;5036780;28;20033;-63
2021/12/12 13:18:39;;;;;;;6.90;3.70;;;;;;;;;;5038693;28;20025;-65
2021/12/12 13:21:18;;;;;;;5.22;3.06;;;;;;;;;;5036657;28;20021;-63
2021/12/12 13:24:00;;;;;;;4.60;2.65;;;;;;;;;;5040735;28;20040;-64
2021/12/12 13:26:41;;;;;;;4.70;2.92;;;;;;;;;;5033818;28;20033;-63
2021/12/12 13:29:15;;;;;;;4.45;2.60;;;;;;;;;;5029042;28;20033;-64
2021/12/12 13:32:02;;;;;;;4.00;2.53;;;;;;;;;;5021587;28;20018;-63
2021/12/12 13:34:30;;;;;;;3.90;2.65;;;;;;;;;;5032252;28;20032;-63
2021/12/12 13:37:06;;;;;;;3.20;2.00;;;;;;;;;;5025736;28;20022;-62
2021/12/12 13:39:39;;;;;;;3.00;2.20;;;;;;;;;;5029485;28;20100;-62
2021/12/12 13:42:09;;;;;;;3.17;2.10;;;;;;;;;;5027836;28;20401;-62
2021/12/12 13:44:53;;;;;;;3.40;2.30;;;;;;;;;;5027665;28;20124;-61
2021/12/12 13:47:23;;;;;;;6.30;2.80;;;;;;;;;;5030609;28;20068;-64
2021/12/12 13:49:48;;;;;;;4.53;2.63;;;;;;;;;;5023997;28;20100;-64
2021/12/12 13:52:20;;;;;;;3.90;2.28;;;;;;;;;;5030604;28;20124;-63
2021/12/12 13:54:51;;;;;;;4.03;2.67;;;;;;;;;;5029008;28;20075;-64
2021/12/12 13:57:25;;;;;;;4.90;2.70;;;;;;;;;;5023976;28;20125;-61
2021/12/12 14:00:09;;;;;;;5.07;2.75;;;;;;;;;;5022401;28;20029;-62
2021/12/12 14:02:35;;;;;;;4.10;2.15;;;;;;;;;;5020445;28;20486;-62
2021/12/12 14:05:11;;;;;;;3.17;1.95;;;;;;;;;;5030373;28;20029;-63
2021/12/12 14:07:41;;;;;;;2.95;1.98;;;;;;;;;;5029228;28;20053;-63
2021/12/12 14:10:06;;;;;;;;;;;;;;;;;;5029857;28;20017;-63
2021/12/12 14:12:33;;;;;;;5.45;2.30;;;;;;;;;;5029959;28;19936;-63
2021/12/12 14:15:01;;;;;;;2.78;1.80;;;;;;;;;;5030254;28;20275;-62
2021/12/12 14:17:46;;;;;;;5.20;3.17;;;;;;;;;;5023674;28;20033;-62
2021/12/12 14:20:26;;;;;;;4.63;2.55;;;;;;;;;;5029723;28;20079;-63
2021/12/12 14:22:53;;;;;;;3.80;2.10;;;;;;;;;;5023309;28;20350;-62
2021/12/12 14:25:18;;;;;;;4.72;2.65;;;;;;;;;;5027057;28;20024;-62
2021/12/12 14:27:45;;;;;;;5.63;3.28;;;;;;;;;;5026189;28;20033;-62
2021/12/12 14:30:11;;;;;;;4.97;2.92;;;;;;;;;;5029668;28;20059;-63
2021/12/12 14:32:38;;;;;;;3.60;2.40;;;;;;;;;;5025064;28;20036;-62
2021/12/12 14:35:08;;;;;;;3.83;2.30;;;;;;;;;;5027946;28;20022;-63
2021/12/12 14:37:34;;;;;;;4.30;2.22;;;;;;;;;;5025639;28;20040;-63
2021/12/12 14:40:02;;;;;;;3.97;2.42;;;;;;;;;;5036786;28;20222;-62
2021/12/12 14:42:28;;;;;;;4.20;1.98;;;;;;;;;;5035791;28;20013;-62
2021/12/12 14:44:55;;;;;;;4.63;1.88;;;;;;;;;;5040560;28;20017;-62
2021/12/12 14:47:22;;;;;;;4.10;1.60;;;;;;;;;;5036538;28;20029;-62
2021/12/12 14:49:50;;;;;;;3.97;1.92;;;;;;;;;;5039938;28;20162;-63
2021/12/12 14:52:44;;;;;;;3.85;2.00;;;;;;;;;;5034556;28;20067;-62
2021/12/12 14:55:15;;;;;;;4.15;1.90;;;;;;;;;;5039086;28;20041;-63
2021/12/12 14:57:40;;;;;;;3.22;2.03;;;;;;;;;;5036068;28;20514;-63
2021/12/12 15:00:08;;;;;;;3.65;1.88;;;;;;;;;;5038320;28;20041;-64
2021/12/12 15:02:37;;;;;;;4.15;2.45;;;;;;;;;;5036556;28;20036;-63
2021/12/12 15:05:16;;;;;;;6.57;3.00;;;;;;;;;;5038893;28;20045;-63
2021/12/12 15:07:43;;;;;;;4.72;2.50;;;;;;;;;;5039610;28;20081;-61
2021/12/12 15:10:15;;;;;;;3.67;2.40;;;;;;;;;;5035500;28;20060;-62